sensor_id;sensor_type;location;lat;lon;timestamp;pressure;altitude;pressure_sealevel;temperature;humidity
27685;BME280;46113;50.130;8.526;2023-05-07T00:01:01;99114.75;;;11.49;66.59
27685;BME280;46113;50.130;8.526;2023-05-07T00:03:28;99117.00;;;11.56;66.98
27685;BME280;46113;50.130;8.526;2023-05-07T00:05:55;99114.94;;;11.46;67.38
27685;BME280;46113;50.130;8.526;2023-05-07T00:08:22;99117.09;;;11.54;67.13
27685;BME280;46113;50.130;8.526;2023-05-07T00:10:49;99115.88;;;11.45;66.94
27685;BME280;46113;50.130;8.526;2023-05-07T00:13:15;99113.16;;;11.47;67.08
27685;BME280;46113;50.130;8.526;2023-05-07T00:15:42;99109.34;;;11.51;66.62
27685;BME280;46113;50.130;8.526;2023-05-07T00:18:09;99107.94;;;11.45;67.46
27685;BME280;46113;50.130;8.526;2023-05-07T00:20:35;99102.09;;;11.40;67.19
27685;BME280;46113;50.130;8.526;2023-05-07T00:23:02;99102.66;;;11.45;66.86
27685;BME280;46113;50.130;8.526;2023-05-07T00:25:29;99106.25;;;11.44;66.95
27685;BME280;46113;50.130;8.526;2023-05-07T00:27:56;99105.50;;;11.42;66.64
27685;BME280;46113;50.130;8.526;2023-05-07T00:30:23;99102.28;;;11.37;66.54
27685;BME280;46113;50.130;8.526;2023-05-07T00:32:50;99101.91;;;11.43;66.12
27685;BME280;46113;50.130;8.526;2023-05-07T00:35:17;99109.28;;;11.38;66.32
27685;BME280;46113;50.130;8.526;2023-05-07T00:37:44;99114.13;;;11.31;66.45
27685;BME280;46113;50.130;8.526;2023-05-07T00:40:11;99108.16;;;11.42;65.88
27685;BME280;46113;50.130;8.526;2023-05-07T00:42:38;99101.53;;;11.35;66.48
27685;BME280;46113;50.130;8.526;2023-05-07T00:45:05;99100.41;;;11.39;66.21
27685;BME280;46113;50.130;8.526;2023-05-07T00:47:32;99099.16;;;11.45;66.07
27685;BME280;46113;50.130;8.526;2023-05-07T00:49:59;99100.59;;;11.36;66.06
27685;BME280;46113;50.130;8.526;2023-05-07T00:52:27;99096.59;;;11.43;65.45
27685;BME280;46113;50.130;8.526;2023-05-07T00:54:54;99093.41;;;11.38;65.51
27685;BME280;46113;50.130;8.526;2023-05-07T00:57:21;99096.06;;;11.38;65.58
27685;BME280;46113;50.130;8.526;2023-05-07T00:59:48;99085.78;;;11.46;65.56
27685;BME280;46113;50.130;8.526;2023-05-07T01:02:16;99091.09;;;11.46;65.09
27685;BME280;46113;50.130;8.526;2023-05-07T01:04:43;99090.72;;;11.52;64.80
27685;BME280;46113;50.130;8.526;2023-05-07T01:07:10;99090.50;;;11.56;65.18
27685;BME280;46113;50.130;8.526;2023-05-07T01:09:37;99093.81;;;11.59;64.92
27685;BME280;46113;50.130;8.526;2023-05-07T01:12:04;99088.81;;;11.54;65.13
27685;BME280;46113;50.130;8.526;2023-05-07T01:14:32;99088.81;;;11.54;65.59
27685;BME280;46113;50.130;8.526;2023-05-07T01:16:59;99084.09;;;11.45;65.85
27685;BME280;46113;50.130;8.526;2023-05-07T01:19:28;99075.66;;;11.53;65.55
27685;BME280;46113;50.130;8.526;2023-05-07T01:22:01;99077.81;;;11.61;65.20
27685;BME280;46113;50.130;8.526;2023-05-07T01:24:31;99073.66;;;11.57;64.77
27685;BME280;46113;50.130;8.526;2023-05-07T01:26:59;99074.59;;;11.56;64.63
27685;BME280;46113;50.130;8.526;2023-05-07T01:29:30;99075.56;;;11.54;64.31
27685;BME280;46113;50.130;8.526;2023-05-07T01:31:59;99078.41;;;11.51;64.84
27685;BME280;46113;50.130;8.526;2023-05-07T01:34:28;99073.22;;;11.50;64.88
27685;BME280;46113;50.130;8.526;2023-05-07T01:36:58;99069.53;;;11.52;65.31
27685;BME280;46113;50.130;8.526;2023-05-07T01:39:26;99072.38;;;11.49;65.09
27685;BME280;46113;50.130;8.526;2023-05-07T01:41:55;99074.50;;;11.57;64.08
27685;BME280;46113;50.130;8.526;2023-05-07T01:44:24;99075.66;;;11.53;64.68
27685;BME280;46113;50.130;8.526;2023-05-07T01:46:51;99074.44;;;11.59;64.68
27685;BME280;46113;50.130;8.526;2023-05-07T01:49:18;99075.94;;;11.63;64.48
27685;BME280;46113;50.130;8.526;2023-05-07T01:51:45;99069.84;;;11.61;64.32
27685;BME280;46113;50.130;8.526;2023-05-07T01:54:12;99068.84;;;11.49;63.71
27685;BME280;46113;50.130;8.526;2023-05-07T01:56:39;99073.56;;;11.58;64.01
27685;BME280;46113;50.130;8.526;2023-05-07T01:59:05;99072.91;;;11.54;64.53
27685;BME280;46113;50.130;8.526;2023-05-07T02:01:32;99082.81;;;11.65;63.72
27685;BME280;46113;50.130;8.526;2023-05-07T02:03:59;99083.00;;;11.62;63.76
27685;BME280;46113;50.130;8.526;2023-05-07T02:09:46;99082.00;;;11.50;63.99
27685;BME280;46113;50.130;8.526;2023-05-07T02:12:14;99082.66;;;11.54;63.76
27685;BME280;46113;50.130;8.526;2023-05-07T02:14:40;99076.31;;;11.57;63.17
27685;BME280;46113;50.130;8.526;2023-05-07T02:17:07;99077.63;;;11.64;62.89
27685;BME280;46113;50.130;8.526;2023-05-07T02:19:34;99077.81;;;11.61;64.08
27685;BME280;46113;50.130;8.526;2023-05-07T02:22:01;99084.25;;;11.57;64.79
27685;BME280;46113;50.130;8.526;2023-05-07T02:24:29;99081.06;;;11.51;64.63
27685;BME280;46113;50.130;8.526;2023-05-07T02:26:57;99088.22;;;11.64;64.09
27685;BME280;46113;50.130;8.526;2023-05-07T02:29:24;99081.50;;;11.58;64.49
27685;BME280;46113;50.130;8.526;2023-05-07T02:31:52;99081.41;;;11.60;63.97
27685;BME280;46113;50.130;8.526;2023-05-07T02:34:19;99090.31;;;11.59;64.03
27685;BME280;46113;50.130;8.526;2023-05-07T02:36:46;99088.72;;;11.56;63.95
27685;BME280;46113;50.130;8.526;2023-05-07T02:39:17;99093.00;;;11.44;64.15
27685;BME280;46113;50.130;8.526;2023-05-07T02:41:44;99096.59;;;11.43;63.59
27685;BME280;46113;50.130;8.526;2023-05-07T02:44:10;99091.22;;;11.45;63.30
27685;BME280;46113;50.130;8.526;2023-05-07T02:46:38;99085.47;;;11.38;63.62
27685;BME280;46113;50.130;8.526;2023-05-07T02:49:08;99085.06;;;11.44;63.05
27685;BME280;46113;50.130;8.526;2023-05-07T02:51:35;99088.44;;;11.46;63.43
27685;BME280;46113;50.130;8.526;2023-05-07T02:54:06;99092.91;;;11.46;64.52
27685;BME280;46113;50.130;8.526;2023-05-07T02:56:33;99096.38;;;11.46;64.43
27685;BME280;46113;50.130;8.526;2023-05-07T02:59:00;99092.06;;;11.45;64.01
27685;BME280;46113;50.130;8.526;2023-05-07T03:01:31;99095.47;;;11.47;64.22
27685;BME280;46113;50.130;8.526;2023-05-07T03:04:02;99087.53;;;11.47;63.86
27685;BME280;46113;50.130;8.526;2023-05-07T03:06:29;99100.00;;;11.45;63.74
27685;BME280;46113;50.130;8.526;2023-05-07T03:08:55;99091.34;;;11.28;62.92
27685;BME280;46113;50.130;8.526;2023-05-07T03:11:22;99098.50;;;11.41;63.26
27685;BME280;46113;50.130;8.526;2023-05-07T03:13:49;99097.25;;;11.47;61.58
27685;BME280;46113;50.130;8.526;2023-05-07T03:16:18;99090.53;;;11.41;63.02
27685;BME280;46113;50.130;8.526;2023-05-07T03:18:45;99087.53;;;11.47;62.39
27685;BME280;46113;50.130;8.526;2023-05-07T03:21:12;99084.75;;;11.49;62.22
27685;BME280;46113;50.130;8.526;2023-05-07T03:23:38;99086.91;;;11.57;62.17
27685;BME280;46113;50.130;8.526;2023-05-07T03:26:05;99080.97;;;11.53;61.07
27685;BME280;46113;50.130;8.526;2023-05-07T03:28:31;99081.19;;;11.50;60.76
27685;BME280;46113;50.130;8.526;2023-05-07T03:31:02;99079.66;;;11.46;60.10
27685;BME280;46113;50.130;8.526;2023-05-07T03:33:29;99086.38;;;11.37;60.88
27685;BME280;46113;50.130;8.526;2023-05-07T03:35:56;99083.94;;;11.34;60.84
27685;BME280;46113;50.130;8.526;2023-05-07T03:41:42;99082.91;;;11.64;60.22
27685;BME280;46113;50.130;8.526;2023-05-07T03:44:08;99086.16;;;11.54;60.22
27685;BME280;46113;50.130;8.526;2023-05-07T03:46:36;99080.06;;;11.39;60.58
27685;BME280;46113;50.130;8.526;2023-05-07T03:49:03;99085.44;;;11.52;59.90
27685;BME280;46113;50.130;8.526;2023-05-07T03:51:30;99087.56;;;11.33;60.33
27685;BME280;46113;50.130;8.526;2023-05-07T03:53:57;99083.94;;;11.34;60.47
27685;BME280;46113;50.130;8.526;2023-05-07T03:56:25;99088.34;;;11.48;60.37
27685;BME280;46113;50.130;8.526;2023-05-07T03:58:56;99093.56;;;11.49;60.75
27685;BME280;46113;50.130;8.526;2023-05-07T04:01:23;99099.00;;;11.61;61.09
27685;BME280;46113;50.130;8.526;2023-05-07T04:03:50;99104.94;;;11.64;61.67
27685;BME280;46113;50.130;8.526;2023-05-07T04:06:17;99106.66;;;11.65;61.88
27685;BME280;46113;50.130;8.526;2023-05-07T04:08:46;99101.38;;;11.65;61.31
27685;BME280;46113;50.130;8.526;2023-05-07T04:11:15;99102.06;;;11.54;60.93
27685;BME280;46113;50.130;8.526;2023-05-07T04:13:42;99105.91;;;11.63;61.14
27685;BME280;46113;50.130;8.526;2023-05-07T04:16:09;99108.22;;;11.55;61.97
27685;BME280;46113;50.130;8.526;2023-05-07T04:18:37;99105.16;;;11.61;61.10
27685;BME280;46113;50.130;8.526;2023-05-07T04:21:04;99095.63;;;11.59;61.36
27685;BME280;46113;50.130;8.526;2023-05-07T04:23:33;99102.28;;;11.64;60.32
27685;BME280;46113;50.130;8.526;2023-05-07T04:26:03;99100.97;;;11.72;60.45
27685;BME280;46113;50.130;8.526;2023-05-07T04:28:35;99091.41;;;11.69;60.25
27685;BME280;46113;50.130;8.526;2023-05-07T04:31:02;99096.63;;;11.71;60.06
27685;BME280;46113;50.130;8.526;2023-05-07T04:33:31;99086.66;;;11.47;59.77
27685;BME280;46113;50.130;8.526;2023-05-07T04:35:58;99090.97;;;11.62;60.35
27685;BME280;46113;50.130;8.526;2023-05-07T04:38:31;99095.19;;;11.37;59.85
27685;BME280;46113;50.130;8.526;2023-05-07T04:41:03;99093.47;;;11.51;59.59
27685;BME280;46113;50.130;8.526;2023-05-07T04:43:34;99098.34;;;11.57;59.27
27685;BME280;46113;50.130;8.526;2023-05-07T04:46:01;99094.56;;;11.61;59.64
27685;BME280;46113;50.130;8.526;2023-05-07T04:48:29;99094.34;;;11.64;59.36
27685;BME280;46113;50.130;8.526;2023-05-07T04:50:57;99099.97;;;11.60;59.60
27685;BME280;46113;50.130;8.526;2023-05-07T04:53:24;99102.50;;;11.61;59.45
27685;BME280;46113;50.130;8.526;2023-05-07T04:55:56;99107.19;;;11.43;59.65
27685;BME280;46113;50.130;8.526;2023-05-07T04:58:27;99112.63;;;11.69;59.10
27685;BME280;46113;50.130;8.526;2023-05-07T05:01:00;99115.47;;;11.51;59.23
27685;BME280;46113;50.130;8.526;2023-05-07T05:03:28;99119.88;;;11.52;59.80
27685;BME280;46113;50.130;8.526;2023-05-07T05:05:55;99124.25;;;11.66;59.52
27685;BME280;46113;50.130;8.526;2023-05-07T05:08:25;99126.31;;;11.76;59.58
27685;BME280;46113;50.130;8.526;2023-05-07T05:10:52;99117.41;;;11.77;59.33
27685;BME280;46113;50.130;8.526;2023-05-07T05:13:19;99121.47;;;11.55;59.00
27685;BME280;46113;50.130;8.526;2023-05-07T05:15:46;99127.47;;;11.72;59.32
27685;BME280;46113;50.130;8.526;2023-05-07T05:18:14;99125.00;;;11.96;58.93
27685;BME280;46113;50.130;8.526;2023-05-07T05:20:40;99131.75;;;11.60;59.42
27685;BME280;46113;50.130;8.526;2023-05-07T05:23:08;99131.75;;;11.87;58.73
27685;BME280;46113;50.130;8.526;2023-05-07T05:25:35;99130.91;;;11.87;58.88
27685;BME280;46113;50.130;8.526;2023-05-07T05:28:02;99134.66;;;11.97;59.02
27685;BME280;46113;50.130;8.526;2023-05-07T05:30:30;99136.91;;;11.76;58.70
27685;BME280;46113;50.130;8.526;2023-05-07T05:36:14;99135.78;;;11.80;58.27
27685;BME280;46113;50.130;8.526;2023-05-07T05:38:42;99138.31;;;12.09;58.56
27685;BME280;46113;50.130;8.526;2023-05-07T05:41:11;99143.72;;;11.80;58.86
27685;BME280;46113;50.130;8.526;2023-05-07T05:43:37;99141.34;;;12.03;58.85
27685;BME280;46113;50.130;8.526;2023-05-07T05:46:04;99138.41;;;12.07;58.46
27685;BME280;46113;50.130;8.526;2023-05-07T05:48:32;99142.91;;;12.20;57.90
27685;BME280;46113;50.130;8.526;2023-05-07T05:51:00;99137.19;;;11.99;58.45
27685;BME280;46113;50.130;8.526;2023-05-07T05:53:27;99132.50;;;12.17;57.86
27685;BME280;46113;50.130;8.526;2023-05-07T05:55:54;99139.72;;;12.15;58.63
27685;BME280;46113;50.130;8.526;2023-05-07T05:58:21;99144.78;;;12.05;58.43
27685;BME280;46113;50.130;8.526;2023-05-07T06:00:53;99145.91;;;12.28;57.71
27685;BME280;46113;50.130;8.526;2023-05-07T06:03:23;99149.91;;;12.21;57.35
27685;BME280;46113;50.130;8.526;2023-05-07T06:05:50;99158.19;;;12.16;57.86
27685;BME280;46113;50.130;8.526;2023-05-07T06:08:20;99163.09;;;12.23;57.54
27685;BME280;46113;50.130;8.526;2023-05-07T06:10:46;99159.50;;;11.81;58.16
27685;BME280;46113;50.130;8.526;2023-05-07T06:13:14;99165.47;;;12.13;57.29
27685;BME280;46113;50.130;8.526;2023-05-07T06:15:41;99168.66;;;12.18;57.31
27685;BME280;46113;50.130;8.526;2023-05-07T06:18:12;99166.16;;;12.02;58.11
27685;BME280;46113;50.130;8.526;2023-05-07T06:20:39;99167.94;;;12.16;57.91
27685;BME280;46113;50.130;8.526;2023-05-07T06:23:11;99169.66;;;12.30;58.08
27685;BME280;46113;50.130;8.526;2023-05-07T06:25:38;99170.03;;;12.11;57.35
27685;BME280;46113;50.130;8.526;2023-05-07T06:28:05;99172.69;;;12.11;58.29
27685;BME280;46113;50.130;8.526;2023-05-07T06:30:34;99172.31;;;12.02;57.95
27685;BME280;46113;50.130;8.526;2023-05-07T06:33:01;99170.81;;;11.98;57.70
27685;BME280;46113;50.130;8.526;2023-05-07T06:35:28;99171.91;;;12.23;57.37
27685;BME280;46113;50.130;8.526;2023-05-07T06:37:55;99173.81;;;12.34;57.31
27685;BME280;46113;50.130;8.526;2023-05-07T06:40:25;99181.13;;;12.30;57.52
27685;BME280;46113;50.130;8.526;2023-05-07T06:42:52;99178.47;;;12.30;58.13
27685;BME280;46113;50.130;8.526;2023-05-07T06:45:35;99178.41;;;12.45;56.66
27685;BME280;46113;50.130;8.526;2023-05-07T06:48:04;99168.78;;;12.57;56.13
27685;BME280;46113;50.130;8.526;2023-05-07T06:50:36;99180.72;;;12.37;57.03
27685;BME280;46113;50.130;8.526;2023-05-07T06:53:03;99179.50;;;12.55;56.39
27685;BME280;46113;50.130;8.526;2023-05-07T06:55:31;99182.25;;;12.67;55.74
27685;BME280;46113;50.130;8.526;2023-05-07T06:57:58;99189.16;;;12.82;56.00
27685;BME280;46113;50.130;8.526;2023-05-07T07:00:27;99191.81;;;12.82;55.64
27685;BME280;46113;50.130;8.526;2023-05-07T07:02:55;99188.88;;;12.74;55.79
27685;BME280;46113;50.130;8.526;2023-05-07T07:05:26;99188.63;;;12.77;55.26
27685;BME280;46113;50.130;8.526;2023-05-07T07:07:54;99188.00;;;12.86;56.10
27685;BME280;46113;50.130;8.526;2023-05-07T07:10:22;99193.31;;;12.99;55.64
27685;BME280;46113;50.130;8.526;2023-05-07T07:12:50;99183.31;;;12.77;55.92
27685;BME280;46113;50.130;8.526;2023-05-07T07:15:17;99183.84;;;12.69;55.91
27685;BME280;46113;50.130;8.526;2023-05-07T07:17:44;99178.25;;;12.87;56.00
27685;BME280;46113;50.130;8.526;2023-05-07T07:20:12;99192.25;;;12.76;55.81
27685;BME280;46113;50.130;8.526;2023-05-07T07:22:42;99193.41;;;12.98;55.59
27685;BME280;46113;50.130;8.526;2023-05-07T07:25:09;99186.00;;;13.16;55.45
27685;BME280;46113;50.130;8.526;2023-05-07T07:27:37;99190.66;;;13.38;55.02
27685;BME280;46113;50.130;8.526;2023-05-07T07:30:04;99199.06;;;13.32;55.11
27685;BME280;46113;50.130;8.526;2023-05-07T07:32:34;99196.28;;;13.47;54.68
27685;BME280;46113;50.130;8.526;2023-05-07T07:35:01;99205.97;;;13.35;55.42
27685;BME280;46113;50.130;8.526;2023-05-07T07:37:28;99197.28;;;13.70;54.29
27685;BME280;46113;50.130;8.526;2023-05-07T07:39:56;99204.19;;;14.10;53.66
27685;BME280;46113;50.130;8.526;2023-05-07T07:42:23;99193.38;;;14.25;53.63
27685;BME280;46113;50.130;8.526;2023-05-07T07:44:49;99197.06;;;14.82;52.01
27685;BME280;46113;50.130;8.526;2023-05-07T07:47:20;99202.66;;;14.43;51.77
27685;BME280;46113;50.130;8.526;2023-05-07T07:49:48;99195.28;;;14.94;50.67
27685;BME280;46113;50.130;8.526;2023-05-07T07:52:15;99188.16;;;15.29;50.52
27685;BME280;46113;50.130;8.526;2023-05-07T07:54:44;99197.50;;;15.58;49.51
27685;BME280;46113;50.130;8.526;2023-05-07T07:57:11;99198.50;;;16.12;48.49
27685;BME280;46113;50.130;8.526;2023-05-07T07:59:38;99194.13;;;15.44;49.61
27685;BME280;46113;50.130;8.526;2023-05-07T08:02:10;99201.22;;;16.01;48.54
27685;BME280;46113;50.130;8.526;2023-05-07T08:04:37;99201.69;;;15.95;47.48
27685;BME280;46113;50.130;8.526;2023-05-07T08:07:06;99206.84;;;15.52;48.61
27685;BME280;46113;50.130;8.526;2023-05-07T08:09:39;99204.41;;;15.26;48.97
27685;BME280;46113;50.130;8.526;2023-05-07T08:12:07;99207.69;;;14.71;50.53
27685;BME280;46113;50.130;8.526;2023-05-07T08:14:35;99195.91;;;15.67;49.83
27685;BME280;46113;50.130;8.526;2023-05-07T08:17:04;99202.78;;;16.03;48.64
27685;BME280;46113;50.130;8.526;2023-05-07T08:19:31;99196.75;;;16.23;48.22
27685;BME280;46113;50.130;8.526;2023-05-07T08:21:58;99187.03;;;16.54;47.44
27685;BME280;46113;50.130;8.526;2023-05-07T08:24:25;99197.69;;;16.00;47.44
27685;BME280;46113;50.130;8.526;2023-05-07T08:26:52;99199.03;;;15.95;47.81
27685;BME280;46113;50.130;8.526;2023-05-07T08:29:19;99198.94;;;16.50;47.71
27685;BME280;46113;50.130;8.526;2023-05-07T08:31:46;99192.09;;;16.58;47.01
27685;BME280;46113;50.130;8.526;2023-05-07T08:34:13;99199.25;;;16.03;48.97
27685;BME280;46113;50.130;8.526;2023-05-07T08:39:37;99198.47;;;17.71;45.49
27685;BME280;46113;50.130;8.526;2023-05-07T08:42:09;99202.94;;;16.77;45.27
27685;BME280;46113;50.130;8.526;2023-05-07T08:44:38;99200.69;;;17.56;45.15
27685;BME280;46113;50.130;8.526;2023-05-07T08:47:06;99200.28;;;17.61;45.07
27685;BME280;46113;50.130;8.526;2023-05-07T08:49:34;99204.28;;;17.45;45.47
27685;BME280;46113;50.130;8.526;2023-05-07T08:52:01;99206.38;;;17.73;44.30
27685;BME280;46113;50.130;8.526;2023-05-07T08:54:28;99204.97;;;17.47;44.51
27685;BME280;46113;50.130;8.526;2023-05-07T08:56:56;99208.97;;;18.14;44.08
27685;BME280;46113;50.130;8.526;2023-05-07T08:59:23;99208.44;;;18.60;44.20
27685;BME280;46113;50.130;8.526;2023-05-07T09:01:51;99199.97;;;18.45;41.89
27685;BME280;46113;50.130;8.526;2023-05-07T09:07:27;99204.28;;;17.96;44.07
27685;BME280;46113;50.130;8.526;2023-05-07T09:09:54;99200.78;;;18.16;43.35
27685;BME280;46113;50.130;8.526;2023-05-07T09:12:24;99198.97;;;18.06;45.47
27685;BME280;46113;50.130;8.526;2023-05-07T09:14:51;99199.75;;;17.77;47.42
27685;BME280;46113;50.130;8.526;2023-05-07T09:17:18;99189.94;;;18.66;44.57
27685;BME280;46113;50.130;8.526;2023-05-07T09:19:45;99183.88;;;18.84;44.58
27685;BME280;46113;50.130;8.526;2023-05-07T09:22:14;99188.00;;;18.19;44.72
27685;BME280;46113;50.130;8.526;2023-05-07T09:24:53;99174.59;;;18.69;44.53
27685;BME280;46113;50.130;8.526;2023-05-07T09:27:23;99177.88;;;18.43;43.36
27685;BME280;46113;50.130;8.526;2023-05-07T09:29:50;99175.75;;;18.46;43.44
27685;BME280;46113;50.130;8.526;2023-05-07T09:32:17;99174.22;;;19.11;43.00
27685;BME280;46113;50.130;8.526;2023-05-07T09:34:44;99174.72;;;18.77;43.31
27685;BME280;46113;50.130;8.526;2023-05-07T09:37:13;99176.22;;;18.89;44.67
27685;BME280;46113;50.130;8.526;2023-05-07T09:39:41;99175.00;;;18.64;43.99
27685;BME280;46113;50.130;8.526;2023-05-07T09:42:08;99180.00;;;18.97;43.94
27685;BME280;46113;50.130;8.526;2023-05-07T09:44:35;99171.81;;;19.08;43.04
27685;BME280;46113;50.130;8.526;2023-05-07T09:47:06;99173.28;;;18.92;43.05
27685;BME280;46113;50.130;8.526;2023-05-07T09:49:39;99164.69;;;18.79;42.03
27685;BME280;46113;50.130;8.526;2023-05-07T09:52:13;99157.75;;;19.34;44.31
27685;BME280;46113;50.130;8.526;2023-05-07T09:54:45;99159.03;;;19.30;43.25
27685;BME280;46113;50.130;8.526;2023-05-07T09:57:16;99162.91;;;19.74;42.41
27685;BME280;46113;50.130;8.526;2023-05-07T09:59:49;99161.88;;;19.56;42.08
27685;BME280;46113;50.130;8.526;2023-05-07T10:02:19;99156.28;;;19.40;42.46
27685;BME280;46113;50.130;8.526;2023-05-07T10:04:50;99156.16;;;19.41;43.05
27685;BME280;46113;50.130;8.526;2023-05-07T10:07:22;99159.59;;;19.62;42.67
27685;BME280;46113;50.130;8.526;2023-05-07T10:09:53;99156.56;;;19.18;41.01
27685;BME280;46113;50.130;8.526;2023-05-07T10:12:28;99158.66;;;18.67;41.77
27685;BME280;46113;50.130;8.526;2023-05-07T10:14:56;99156.84;;;19.15;42.53
27685;BME280;46113;50.130;8.526;2023-05-07T10:17:24;99161.59;;;18.64;42.19
27685;BME280;46113;50.130;8.526;2023-05-07T10:19:53;99160.94;;;18.52;42.42
27685;BME280;46113;50.130;8.526;2023-05-07T10:22:21;99160.81;;;19.11;41.14
27685;BME280;46113;50.130;8.526;2023-05-07T10:24:48;99150.75;;;19.51;40.95
27685;BME280;46113;50.130;8.526;2023-05-07T10:27:19;99155.84;;;19.16;41.71
27685;BME280;46113;50.130;8.526;2023-05-07T10:32:59;99153.88;;;19.18;43.33
27685;BME280;46113;50.130;8.526;2023-05-07T10:35:31;99153.44;;;18.65;42.14
27685;BME280;46113;50.130;8.526;2023-05-07T10:38:02;99152.72;;;18.83;42.66
27685;BME280;46113;50.130;8.526;2023-05-07T10:40:31;99154.06;;;19.35;39.95
27685;BME280;46113;50.130;8.526;2023-05-07T10:43:01;99157.00;;;19.14;41.49
27685;BME280;46113;50.130;8.526;2023-05-07T10:45:34;99158.56;;;19.44;41.25
27685;BME280;46113;50.130;8.526;2023-05-07T10:51:18;99152.47;;;19.04;40.56
27685;BME280;46113;50.130;8.526;2023-05-07T10:53:45;99154.69;;;18.71;41.56
27685;BME280;46113;50.130;8.526;2023-05-07T10:58:48;99140.78;;;19.05;41.79
27685;BME280;46113;50.130;8.526;2023-05-07T11:01:55;99151.41;;;19.35;41.71
27685;BME280;46113;50.130;8.526;2023-05-07T11:04:35;99151.66;;;19.04;40.35
27685;BME280;46113;50.130;8.526;2023-05-07T11:07:27;99153.69;;;18.82;40.72
27685;BME280;46113;50.130;8.526;2023-05-07T11:10:08;99152.75;;;18.53;41.79
27685;BME280;46113;50.130;8.526;2023-05-07T11:15:41;99148.56;;;18.89;42.14
27685;BME280;46113;50.130;8.526;2023-05-07T11:18:47;99143.63;;;18.94;41.64
27685;BME280;46113;50.130;8.526;2023-05-07T11:21:43;99138.47;;;19.21;39.48
27685;BME280;46113;50.130;8.526;2023-05-07T11:24:42;99137.09;;;19.16;40.29
27685;BME280;46113;50.130;8.526;2023-05-07T11:27:11;99142.00;;;18.73;42.18
27685;BME280;46113;50.130;8.526;2023-05-07T11:29:38;99139.66;;;19.08;40.63
27685;BME280;46113;50.130;8.526;2023-05-07T11:32:09;99143.06;;;18.90;41.30
27685;BME280;46113;50.130;8.526;2023-05-07T11:34:51;99141.75;;;19.04;40.02
27685;BME280;46113;50.130;8.526;2023-05-07T11:37:19;99132.03;;;19.03;39.37
27685;BME280;46113;50.130;8.526;2023-05-07T11:40:07;99131.53;;;18.90;41.67
27685;BME280;46113;50.130;8.526;2023-05-07T11:42:36;99128.06;;;19.17;40.62
27685;BME280;46113;50.130;8.526;2023-05-07T11:48:40;99137.47;;;19.22;41.41
27685;BME280;46113;50.130;8.526;2023-05-07T11:51:08;99140.53;;;18.99;40.76
27685;BME280;46113;50.130;8.526;2023-05-07T11:53:42;99135.53;;;19.14;40.81
27685;BME280;46113;50.130;8.526;2023-05-07T11:56:10;99125.81;;;19.13;40.51
27685;BME280;46113;50.130;8.526;2023-05-07T11:58:37;99132.16;;;19.40;41.99
27685;BME280;46113;50.130;8.526;2023-05-07T12:05:22;99123.38;;;19.48;41.29
27685;BME280;46113;50.130;8.526;2023-05-07T12:07:56;99115.78;;;19.43;39.17
27685;BME280;46113;50.130;8.526;2023-05-07T12:10:22;99123.22;;;19.49;39.81
27685;BME280;46113;50.130;8.526;2023-05-07T12:12:51;99122.47;;;19.57;38.90
27685;BME280;46113;50.130;8.526;2023-05-07T12:15:22;99123.84;;;19.61;40.23
27685;BME280;46113;50.130;8.526;2023-05-07T12:17:49;99119.03;;;19.65;38.51
27685;BME280;46113;50.130;8.526;2023-05-07T12:20:17;99111.34;;;19.98;37.86
27685;BME280;46113;50.130;8.526;2023-05-07T12:22:43;99118.16;;;20.10;37.80
27685;BME280;46113;50.130;8.526;2023-05-07T12:25:10;99110.44;;;19.61;37.38
27685;BME280;46113;50.130;8.526;2023-05-07T12:27:38;99113.13;;;19.79;38.38
27685;BME280;46113;50.130;8.526;2023-05-07T12:30:06;99114.75;;;19.72;39.14
27685;BME280;46113;50.130;8.526;2023-05-07T12:32:33;99113.88;;;19.53;38.21
27685;BME280;46113;50.130;8.526;2023-05-07T12:35:05;99117.16;;;19.29;38.05
27685;BME280;46113;50.130;8.526;2023-05-07T12:37:33;99112.03;;;19.36;36.45
27685;BME280;46113;50.130;8.526;2023-05-07T12:40:09;99105.91;;;19.43;36.19
27685;BME280;46113;50.130;8.526;2023-05-07T12:42:36;99106.28;;;19.30;37.55
27685;BME280;46113;50.130;8.526;2023-05-07T12:45:08;99105.28;;;19.31;37.75
27685;BME280;46113;50.130;8.526;2023-05-07T12:47:35;99105.72;;;19.27;38.19
27685;BME280;46113;50.130;8.526;2023-05-07T12:50:05;99108.25;;;19.28;39.00
27685;BME280;46113;50.130;8.526;2023-05-07T12:52:33;99108.88;;;19.40;38.16
27685;BME280;46113;50.130;8.526;2023-05-07T12:55:09;99105.22;;;19.41;38.97
27685;BME280;46113;50.130;8.526;2023-05-07T12:57:41;99111.72;;;19.39;37.52
27685;BME280;46113;50.130;8.526;2023-05-07T13:00:09;99099.59;;;19.35;37.29
27685;BME280;46113;50.130;8.526;2023-05-07T13:02:41;99104.97;;;19.53;38.13
27685;BME280;46113;50.130;8.526;2023-05-07T13:05:11;99095.34;;;19.78;38.47
27685;BME280;46113;50.130;8.526;2023-05-07T13:07:39;99099.41;;;19.46;38.98
27685;BME280;46113;50.130;8.526;2023-05-07T13:10:17;99105.97;;;19.33;37.90
27685;BME280;46113;50.130;8.526;2023-05-07T13:12:43;99102.84;;;19.38;37.82
27685;BME280;46113;50.130;8.526;2023-05-07T13:15:10;99093.97;;;19.56;39.24
27685;BME280;46113;50.130;8.526;2023-05-07T13:17:38;99089.31;;;19.76;37.00
27685;BME280;46113;50.130;8.526;2023-05-07T13:20:11;99099.19;;;19.57;38.08
27685;BME280;46113;50.130;8.526;2023-05-07T13:22:40;99092.88;;;19.30;37.50
27685;BME280;46113;50.130;8.526;2023-05-07T13:25:08;99091.56;;;19.35;37.01
27685;BME280;46113;50.130;8.526;2023-05-07T13:27:35;99099.53;;;19.26;39.56
27685;BME280;46113;50.130;8.526;2023-05-07T13:30:04;99094.47;;;19.41;38.12
27685;BME280;46113;50.130;8.526;2023-05-07T13:32:31;99081.78;;;19.43;38.69
27685;BME280;46113;50.130;8.526;2023-05-07T13:34:58;99095.16;;;19.25;39.60
27685;BME280;46113;50.130;8.526;2023-05-07T13:40:43;99080.78;;;19.16;37.95
27685;BME280;46113;50.130;8.526;2023-05-07T13:43:09;99082.38;;;19.09;38.61
27685;BME280;46113;50.130;8.526;2023-05-07T13:45:37;99072.00;;;18.86;39.60
27685;BME280;46113;50.130;8.526;2023-05-07T13:48:04;99071.88;;;18.88;39.45